sensor_id;sensor_type;location;lat;lon;timestamp;P1;durP1;ratioP1;P2;durP2;ratioP2
5117;SDS011;2578;51.622;7.046;2023-02-26T00:01:13;4.80;;;4.40;;
5117;SDS011;2578;51.622;7.046;2023-02-26T00:03:40;5.07;;;4.67;;
5117;SDS011;2578;51.622;7.046;2023-02-26T00:06:06;5.03;;;4.63;;
5117;SDS011;2578;51.622;7.046;2023-02-26T00:08:32;4.90;;;4.50;;
5117;SDS011;2578;51.622;7.046;2023-02-26T00:10:58;4.80;;;4.40;;
5117;SDS011;2578;51.622;7.046;2023-02-26T00:13:26;7.63;;;4.50;;
5117;SDS011;2578;51.622;7.046;2023-02-26T00:15:54;5.03;;;4.63;;
5117;SDS011;2578;51.622;7.046;2023-02-26T00:18:23;4.70;;;4.30;;
5117;SDS011;2578;51.622;7.046;2023-02-26T00:20:48;4.53;;;4.13;;
5117;SDS011;2578;51.622;7.046;2023-02-26T00:23:14;7.63;;;6.07;;
5117;SDS011;2578;51.622;7.046;2023-02-26T00:25:41;8.03;;;5.07;;
5117;SDS011;2578;51.622;7.046;2023-02-26T00:28:07;4.07;;;3.70;;
5117;SDS011;2578;51.622;7.046;2023-02-26T00:30:33;4.40;;;4.00;;
5117;SDS011;2578;51.622;7.046;2023-02-26T00:32:59;4.80;;;4.40;;
5117;SDS011;2578;51.622;7.046;2023-02-26T00:35:25;4.90;;;4.50;;
5117;SDS011;2578;51.622;7.046;2023-02-26T00:40:43;5.27;;;4.87;;
5117;SDS011;2578;51.622;7.046;2023-02-26T00:43:22;5.23;;;4.80;;
5117;SDS011;2578;51.622;7.046;2023-02-26T00:48:46;4.97;;;4.57;;
5117;SDS011;2578;51.622;7.046;2023-02-26T00:56:42;5.73;;;5.33;;
5117;SDS011;2578;51.622;7.046;2023-02-26T00:59:08;5.37;;;4.97;;
5117;SDS011;2578;51.622;7.046;2023-02-26T01:01:33;9.20;;;5.60;;
5117;SDS011;2578;51.622;7.046;2023-02-26T01:03:59;6.00;;;5.60;;
5117;SDS011;2578;51.622;7.046;2023-02-26T01:06:27;10.63;;;6.67;;
5117;SDS011;2578;51.622;7.046;2023-02-26T01:09:02;6.53;;;6.03;;
5117;SDS011;2578;51.622;7.046;2023-02-26T01:11:35;6.60;;;6.10;;
5117;SDS011;2578;51.622;7.046;2023-02-26T01:14:01;7.07;;;6.57;;
5117;SDS011;2578;51.622;7.046;2023-02-26T01:16:28;6.30;;;5.80;;
5117;SDS011;2578;51.622;7.046;2023-02-26T01:19:00;8.20;;;7.50;;
5117;SDS011;2578;51.622;7.046;2023-02-26T01:21:32;7.00;;;6.40;;
5117;SDS011;2578;51.622;7.046;2023-02-26T01:24:03;6.40;;;5.90;;
5117;SDS011;2578;51.622;7.046;2023-02-26T01:26:32;5.47;;;5.07;;
5117;SDS011;2578;51.622;7.046;2023-02-26T01:28:58;5.50;;;5.10;;
5117;SDS011;2578;51.622;7.046;2023-02-26T01:43:03;10.17;;;5.20;;
5117;SDS011;2578;51.622;7.046;2023-02-26T01:45:35;11.13;;;5.80;;
5117;SDS011;2578;51.622;7.046;2023-02-26T01:48:17;5.90;;;5.50;;
5117;SDS011;2578;51.622;7.046;2023-02-26T01:50:56;6.00;;;5.60;;
5117;SDS011;2578;51.622;7.046;2023-02-26T01:53:25;6.00;;;5.60;;
5117;SDS011;2578;51.622;7.046;2023-02-26T01:55:57;6.00;;;5.60;;
5117;SDS011;2578;51.622;7.046;2023-02-26T01:58:27;8.73;;;5.93;;
5117;SDS011;2578;51.622;7.046;2023-02-26T02:00:57;74.17;;;14.10;;
5117;SDS011;2578;51.622;7.046;2023-02-26T02:03:23;5.10;;;4.70;;
5117;SDS011;2578;51.622;7.046;2023-02-26T02:06:05;5.40;;;5.00;;
5117;SDS011;2578;51.622;7.046;2023-02-26T02:08:34;5.40;;;5.00;;
5117;SDS011;2578;51.622;7.046;2023-02-26T02:11:00;5.50;;;5.10;;
5117;SDS011;2578;51.622;7.046;2023-02-26T02:13:40;5.50;;;5.10;;
5117;SDS011;2578;51.622;7.046;2023-02-26T02:18:52;5.93;;;5.53;;
5117;SDS011;2578;51.622;7.046;2023-02-26T02:25:11;5.77;;;5.30;;
5117;SDS011;2578;51.622;7.046;2023-02-26T02:28:03;5.50;;;5.10;;
5117;SDS011;2578;51.622;7.046;2023-02-26T02:30:54;5.00;;;4.60;;
5117;SDS011;2578;51.622;7.046;2023-02-26T02:33:21;5.63;;;5.23;;
5117;SDS011;2578;51.622;7.046;2023-02-26T02:35:55;5.53;;;5.13;;
5117;SDS011;2578;51.622;7.046;2023-02-26T02:38:27;5.80;;;5.40;;
5117;SDS011;2578;51.622;7.046;2023-02-26T02:41:02;5.67;;;5.27;;
5117;SDS011;2578;51.622;7.046;2023-02-26T02:43:32;5.50;;;5.10;;
5117;SDS011;2578;51.622;7.046;2023-02-26T02:46:05;5.00;;;4.60;;
5117;SDS011;2578;51.622;7.046;2023-02-26T02:51:30;4.83;;;4.43;;
5117;SDS011;2578;51.622;7.046;2023-02-26T02:54:06;6.33;;;4.43;;
5117;SDS011;2578;51.622;7.046;2023-02-26T02:56:53;4.60;;;4.20;;
5117;SDS011;2578;51.622;7.046;2023-02-26T03:02:21;3.87;;;3.57;;
5117;SDS011;2578;51.622;7.046;2023-02-26T03:04:57;3.60;;;3.30;;
5117;SDS011;2578;51.622;7.046;2023-02-26T03:07:23;3.40;;;3.10;;
5117;SDS011;2578;51.622;7.046;2023-02-26T03:09:48;3.30;;;2.90;;
5117;SDS011;2578;51.622;7.046;2023-02-26T03:12:14;3.50;;;3.20;;
5117;SDS011;2578;51.622;7.046;2023-02-26T03:14:40;4.10;;;3.70;;
5117;SDS011;2578;51.622;7.046;2023-02-26T03:17:25;3.70;;;3.40;;
5117;SDS011;2578;51.622;7.046;2023-02-26T03:20:32;3.40;;;3.10;;
5117;SDS011;2578;51.622;7.046;2023-02-26T03:25:50;3.30;;;2.80;;
5117;SDS011;2578;51.622;7.046;2023-02-26T03:31:36;3.10;;;2.40;;
5117;SDS011;2578;51.622;7.046;2023-02-26T03:36:52;3.30;;;2.70;;
5117;SDS011;2578;51.622;7.046;2023-02-26T03:41:57;3.10;;;2.50;;
5117;SDS011;2578;51.622;7.046;2023-02-26T03:44:27;3.30;;;2.80;;
5117;SDS011;2578;51.622;7.046;2023-02-26T03:46:59;3.20;;;2.60;;
5117;SDS011;2578;51.622;7.046;2023-02-26T03:49:30;3.17;;;2.50;;
5117;SDS011;2578;51.622;7.046;2023-02-26T03:51:59;3.20;;;2.60;;
5117;SDS011;2578;51.622;7.046;2023-02-26T03:54:30;3.20;;;2.70;;
5117;SDS011;2578;51.622;7.046;2023-02-26T03:57:05;3.20;;;2.70;;
5117;SDS011;2578;51.622;7.046;2023-02-26T03:59:31;3.20;;;2.50;;
5117;SDS011;2578;51.622;7.046;2023-02-26T04:02:12;3.20;;;2.60;;
5117;SDS011;2578;51.622;7.046;2023-02-26T04:04:47;3.20;;;2.60;;
5117;SDS011;2578;51.622;7.046;2023-02-26T04:07:16;3.33;;;3.03;;
5117;SDS011;2578;51.622;7.046;2023-02-26T04:09:43;4.83;;;3.77;;
5117;SDS011;2578;51.622;7.046;2023-02-26T04:12:11;3.50;;;3.20;;
5117;SDS011;2578;51.622;7.046;2023-02-26T04:14:36;3.73;;;3.33;;
5117;SDS011;2578;51.622;7.046;2023-02-26T04:17:03;3.40;;;3.00;;
5117;SDS011;2578;51.622;7.046;2023-02-26T04:19:28;3.30;;;2.80;;
5117;SDS011;2578;51.622;7.046;2023-02-26T04:21:54;3.30;;;2.90;;
5117;SDS011;2578;51.622;7.046;2023-02-26T04:24:19;3.70;;;3.30;;
5117;SDS011;2578;51.622;7.046;2023-02-26T04:26:45;3.30;;;2.80;;
5117;SDS011;2578;51.622;7.046;2023-02-26T04:29:11;3.50;;;3.20;;
5117;SDS011;2578;51.622;7.046;2023-02-26T04:31:36;3.50;;;3.20;;
5117;SDS011;2578;51.622;7.046;2023-02-26T04:34:02;3.60;;;3.30;;
5117;SDS011;2578;51.622;7.046;2023-02-26T04:36:28;3.50;;;3.20;;
5117;SDS011;2578;51.622;7.046;2023-02-26T04:38:54;3.40;;;3.10;;
5117;SDS011;2578;51.622;7.046;2023-02-26T04:41:20;3.30;;;2.90;;
5117;SDS011;2578;51.622;7.046;2023-02-26T04:43:46;3.90;;;3.50;;
5117;SDS011;2578;51.622;7.046;2023-02-26T04:46:12;3.30;;;3.00;;
5117;SDS011;2578;51.622;7.046;2023-02-26T04:48:38;3.60;;;3.30;;
5117;SDS011;2578;51.622;7.046;2023-02-26T04:51:03;3.50;;;3.20;;
5117;SDS011;2578;51.622;7.046;2023-02-26T04:53:29;3.43;;;3.13;;
5117;SDS011;2578;51.622;7.046;2023-02-26T04:55:55;3.30;;;2.97;;
5117;SDS011;2578;51.622;7.046;2023-02-26T04:58:20;3.40;;;3.10;;
5117;SDS011;2578;51.622;7.046;2023-02-26T05:00:47;3.30;;;2.90;;
5117;SDS011;2578;51.622;7.046;2023-02-26T05:03:13;3.30;;;3.00;;
5117;SDS011;2578;51.622;7.046;2023-02-26T05:05:39;3.30;;;3.00;;
5117;SDS011;2578;51.622;7.046;2023-02-26T05:08:05;3.97;;;3.67;;
5117;SDS011;2578;51.622;7.046;2023-02-26T05:10:30;4.40;;;4.00;;
5117;SDS011;2578;51.622;7.046;2023-02-26T05:12:56;4.50;;;4.10;;
5117;SDS011;2578;51.622;7.046;2023-02-26T05:15:21;4.50;;;4.10;;
5117;SDS011;2578;51.622;7.046;2023-02-26T05:17:47;4.50;;;4.10;;
5117;SDS011;2578;51.622;7.046;2023-02-26T05:20:12;4.50;;;4.10;;
5117;SDS011;2578;51.622;7.046;2023-02-26T05:22:39;4.20;;;3.80;;
5117;SDS011;2578;51.622;7.046;2023-02-26T05:25:07;4.13;;;3.77;;
5117;SDS011;2578;51.622;7.046;2023-02-26T05:27:33;3.80;;;3.50;;
5117;SDS011;2578;51.622;7.046;2023-02-26T05:29:58;4.63;;;3.83;;
5117;SDS011;2578;51.622;7.046;2023-02-26T05:32:24;4.37;;;3.97;;
5117;SDS011;2578;51.622;7.046;2023-02-26T05:34:50;3.50;;;3.20;;
5117;SDS011;2578;51.622;7.046;2023-02-26T05:37:15;3.60;;;3.30;;
5117;SDS011;2578;51.622;7.046;2023-02-26T05:39:41;3.90;;;3.60;;
5117;SDS011;2578;51.622;7.046;2023-02-26T05:42:07;3.93;;;3.63;;
5117;SDS011;2578;51.622;7.046;2023-02-26T05:44:32;4.23;;;3.87;;
5117;SDS011;2578;51.622;7.046;2023-02-26T05:46:59;3.60;;;3.30;;
5117;SDS011;2578;51.622;7.046;2023-02-26T05:49:25;3.20;;;2.80;;
5117;SDS011;2578;51.622;7.046;2023-02-26T05:51:51;3.23;;;2.90;;
5117;SDS011;2578;51.622;7.046;2023-02-26T05:54:17;3.30;;;2.93;;
5117;SDS011;2578;51.622;7.046;2023-02-26T05:56:42;3.20;;;2.90;;
5117;SDS011;2578;51.622;7.046;2023-02-26T05:59:08;3.30;;;2.90;;
5117;SDS011;2578;51.622;7.046;2023-02-26T06:01:34;3.27;;;2.83;;
5117;SDS011;2578;51.622;7.046;2023-02-26T06:04:01;3.50;;;3.20;;
5117;SDS011;2578;51.622;7.046;2023-02-26T06:06:27;3.90;;;3.60;;
5117;SDS011;2578;51.622;7.046;2023-02-26T06:08:53;3.70;;;3.40;;
5117;SDS011;2578;51.622;7.046;2023-02-26T06:11:19;3.73;;;3.43;;
5117;SDS011;2578;51.622;7.046;2023-02-26T06:13:44;3.70;;;3.40;;
5117;SDS011;2578;51.622;7.046;2023-02-26T06:16:10;3.63;;;3.33;;
5117;SDS011;2578;51.622;7.046;2023-02-26T06:18:36;6.73;;;5.43;;
5117;SDS011;2578;51.622;7.046;2023-02-26T06:21:01;4.20;;;3.80;;
5117;SDS011;2578;51.622;7.046;2023-02-26T06:23:27;3.90;;;3.60;;
5117;SDS011;2578;51.622;7.046;2023-02-26T06:25:52;3.50;;;3.20;;
5117;SDS011;2578;51.622;7.046;2023-02-26T06:28:18;3.40;;;3.10;;
5117;SDS011;2578;51.622;7.046;2023-02-26T06:30:45;3.60;;;3.30;;
5117;SDS011;2578;51.622;7.046;2023-02-26T06:33:10;4.57;;;3.20;;
5117;SDS011;2578;51.622;7.046;2023-02-26T06:35:37;3.10;;;2.50;;
5117;SDS011;2578;51.622;7.046;2023-02-26T06:38:03;3.37;;;3.00;;
5117;SDS011;2578;51.622;7.046;2023-02-26T06:40:28;3.40;;;2.90;;
5117;SDS011;2578;51.622;7.046;2023-02-26T06:42:54;3.30;;;2.80;;
5117;SDS011;2578;51.622;7.046;2023-02-26T06:45:21;3.30;;;2.80;;
5117;SDS011;2578;51.622;7.046;2023-02-26T06:47:47;3.40;;;3.10;;
5117;SDS011;2578;51.622;7.046;2023-02-26T06:50:12;3.50;;;3.20;;
5117;SDS011;2578;51.622;7.046;2023-02-26T06:52:38;3.70;;;3.40;;
5117;SDS011;2578;51.622;7.046;2023-02-26T06:55:04;3.90;;;3.50;;
5117;SDS011;2578;51.622;7.046;2023-02-26T06:57:30;3.80;;;3.50;;
5117;SDS011;2578;51.622;7.046;2023-02-26T06:59:56;4.73;;;4.33;;
5117;SDS011;2578;51.622;7.046;2023-02-26T07:02:21;5.40;;;5.00;;
5117;SDS011;2578;51.622;7.046;2023-02-26T07:04:47;6.00;;;5.60;;
5117;SDS011;2578;51.622;7.046;2023-02-26T07:07:13;6.30;;;5.90;;
5117;SDS011;2578;51.622;7.046;2023-02-26T07:09:39;7.50;;;7.00;;
5117;SDS011;2578;51.622;7.046;2023-02-26T07:12:05;8.10;;;7.60;;
5117;SDS011;2578;51.622;7.046;2023-02-26T07:14:31;9.43;;;8.83;;
5117;SDS011;2578;51.622;7.046;2023-02-26T07:16:58;10.20;;;9.60;;
5117;SDS011;2578;51.622;7.046;2023-02-26T07:19:24;11.30;;;10.60;;
5117;SDS011;2578;51.622;7.046;2023-02-26T07:21:50;12.03;;;11.33;;
5117;SDS011;2578;51.622;7.046;2023-02-26T07:24:16;12.93;;;12.13;;
5117;SDS011;2578;51.622;7.046;2023-02-26T07:26:42;13.10;;;12.30;;
5117;SDS011;2578;51.622;7.046;2023-02-26T07:29:07;13.70;;;12.90;;
5117;SDS011;2578;51.622;7.046;2023-02-26T07:31:33;24.33;;;13.50;;
5117;SDS011;2578;51.622;7.046;2023-02-26T07:33:59;13.60;;;12.80;;
5117;SDS011;2578;51.622;7.046;2023-02-26T07:36:24;14.30;;;13.40;;
5117;SDS011;2578;51.622;7.046;2023-02-26T07:38:50;14.80;;;13.90;;
5117;SDS011;2578;51.622;7.046;2023-02-26T07:41:15;14.90;;;14.00;;
5117;SDS011;2578;51.622;7.046;2023-02-26T07:43:41;15.50;;;14.50;;
5117;SDS011;2578;51.622;7.046;2023-02-26T07:46:07;15.30;;;14.30;;
5117;SDS011;2578;51.622;7.046;2023-02-26T07:48:32;16.00;;;15.00;;
5117;SDS011;2578;51.622;7.046;2023-02-26T07:50:59;17.10;;;16.00;;
5117;SDS011;2578;51.622;7.046;2023-02-26T07:53:24;17.20;;;16.10;;
5117;SDS011;2578;51.622;7.046;2023-02-26T07:55:50;17.80;;;16.60;;
5117;SDS011;2578;51.622;7.046;2023-02-26T07:58:16;18.80;;;17.50;;
5117;SDS011;2578;51.622;7.046;2023-02-26T08:00:41;19.53;;;18.13;;
5117;SDS011;2578;51.622;7.046;2023-02-26T08:03:07;18.60;;;17.40;;
5117;SDS011;2578;51.622;7.046;2023-02-26T08:05:33;18.90;;;17.70;;
5117;SDS011;2578;51.622;7.046;2023-02-26T08:07:58;18.57;;;17.37;;
5117;SDS011;2578;51.622;7.046;2023-02-26T08:10:26;18.30;;;17.10;;
5117;SDS011;2578;51.622;7.046;2023-02-26T08:12:51;20.30;;;19.00;;
5117;SDS011;2578;51.622;7.046;2023-02-26T08:15:17;21.10;;;19.70;;
5117;SDS011;2578;51.622;7.046;2023-02-26T08:17:42;21.80;;;20.40;;
5117;SDS011;2578;51.622;7.046;2023-02-26T08:20:08;21.90;;;20.40;;
5117;SDS011;2578;51.622;7.046;2023-02-26T08:22:35;22.10;;;20.60;;
5117;SDS011;2578;51.622;7.046;2023-02-26T08:25:02;21.67;;;20.17;;
5117;SDS011;2578;51.622;7.046;2023-02-26T08:27:31;21.73;;;20.23;;
5117;SDS011;2578;51.622;7.046;2023-02-26T08:29:57;21.80;;;20.20;;
5117;SDS011;2578;51.622;7.046;2023-02-26T08:32:22;22.70;;;21.10;;
5117;SDS011;2578;51.622;7.046;2023-02-26T08:34:51;22.50;;;20.90;;
5117;SDS011;2578;51.622;7.046;2023-02-26T08:37:16;23.07;;;21.47;;
5117;SDS011;2578;51.622;7.046;2023-02-26T08:39:42;23.60;;;22.00;;
5117;SDS011;2578;51.622;7.046;2023-02-26T08:42:08;23.67;;;21.97;;
5117;SDS011;2578;51.622;7.046;2023-02-26T08:44:35;21.50;;;20.00;;
5117;SDS011;2578;51.622;7.046;2023-02-26T08:47:01;22.00;;;20.50;;
5117;SDS011;2578;51.622;7.046;2023-02-26T08:49:27;21.80;;;20.30;;
5117;SDS011;2578;51.622;7.046;2023-02-26T08:51:53;22.90;;;21.30;;
5117;SDS011;2578;51.622;7.046;2023-02-26T08:54:18;24.20;;;22.50;;
5117;SDS011;2578;51.622;7.046;2023-02-26T08:56:44;24.23;;;22.53;;
5117;SDS011;2578;51.622;7.046;2023-02-26T08:59:10;23.80;;;22.10;;
5117;SDS011;2578;51.622;7.046;2023-02-26T09:01:37;24.40;;;22.70;;
5117;SDS011;2578;51.622;7.046;2023-02-26T09:04:03;25.97;;;23.60;;
5117;SDS011;2578;51.622;7.046;2023-02-26T09:06:28;25.43;;;23.70;;
5117;SDS011;2578;51.622;7.046;2023-02-26T09:08:54;27.53;;;25.33;;
5117;SDS011;2578;51.622;7.046;2023-02-26T09:11:19;24.60;;;22.70;;
5117;SDS011;2578;51.622;7.046;2023-02-26T09:13:45;24.53;;;22.73;;
5117;SDS011;2578;51.622;7.046;2023-02-26T09:16:11;25.20;;;23.40;;
5117;SDS011;2578;51.622;7.046;2023-02-26T09:18:36;25.10;;;23.20;;
5117;SDS011;2578;51.622;7.046;2023-02-26T09:21:02;25.17;;;23.10;;
5117;SDS011;2578;51.622;7.046;2023-02-26T09:23:28;24.87;;;22.67;;
5117;SDS011;2578;51.622;7.046;2023-02-26T09:25:54;24.90;;;23.10;;
5117;SDS011;2578;51.622;7.046;2023-02-26T09:28:21;24.80;;;23.00;;
5117;SDS011;2578;51.622;7.046;2023-02-26T09:30:50;24.83;;;23.03;;
5117;SDS011;2578;51.622;7.046;2023-02-26T09:33:16;25.60;;;23.70;;
5117;SDS011;2578;51.622;7.046;2023-02-26T09:35:49;25.10;;;23.30;;
5117;SDS011;2578;51.622;7.046;2023-02-26T09:38:16;25.73;;;23.77;;
5117;SDS011;2578;51.622;7.046;2023-02-26T09:41:01;25.50;;;23.70;;
5117;SDS011;2578;51.622;7.046;2023-02-26T09:49:04;28.40;;;26.40;;
5117;SDS011;2578;51.622;7.046;2023-02-26T09:51:34;29.80;;;27.60;;
5117;SDS011;2578;51.622;7.046;2023-02-26T09:54:02;30.73;;;28.43;;
5117;SDS011;2578;51.622;7.046;2023-02-26T09:56:40;29.63;;;27.43;;
5117;SDS011;2578;51.622;7.046;2023-02-26T09:59:08;27.80;;;25.70;;
5117;SDS011;2578;51.622;7.046;2023-02-26T10:01:37;30.30;;;28.10;;
5117;SDS011;2578;51.622;7.046;2023-02-26T10:12:42;26.70;;;24.70;;
5117;SDS011;2578;51.622;7.046;2023-02-26T10:15:14;27.57;;;25.47;;
5117;SDS011;2578;51.622;7.046;2023-02-26T10:17:51;28.40;;;26.30;;
5117;SDS011;2578;51.622;7.046;2023-02-26T10:23:22;27.83;;;25.80;;
5117;SDS011;2578;51.622;7.046;2023-02-26T10:25:57;28.17;;;25.90;;
5117;SDS011;2578;51.622;7.046;2023-02-26T10:33:52;27.90;;;25.80;;
5117;SDS011;2578;51.622;7.046;2023-02-26T10:36:28;28.00;;;26.00;;
5117;SDS011;2578;51.622;7.046;2023-02-26T10:38:57;30.57;;;28.37;;
5117;SDS011;2578;51.622;7.046;2023-02-26T10:41:30;34.47;;;32.03;;
5117;SDS011;2578;51.622;7.046;2023-02-26T10:44:05;31.60;;;29.30;;
5117;SDS011;2578;51.622;7.046;2023-02-26T10:46:40;31.70;;;29.40;;
5117;SDS011;2578;51.622;7.046;2023-02-26T10:52:14;33.53;;;31.03;;
5117;SDS011;2578;51.622;7.046;2023-02-26T10:54:45;32.90;;;30.30;;
5117;SDS011;2578;51.622;7.046;2023-02-26T10:57:22;32.10;;;29.70;;
5117;SDS011;2578;51.622;7.046;2023-02-26T10:59:51;33.40;;;30.90;;
5117;SDS011;2578;51.622;7.046;2023-02-26T11:02:25;33.47;;;31.07;;
5117;SDS011;2578;51.622;7.046;2023-02-26T11:05:24;33.60;;;31.10;;
5117;SDS011;2578;51.622;7.046;2023-02-26T11:07:56;33.80;;;31.30;;
5117;SDS011;2578;51.622;7.046;2023-02-26T11:10:47;32.90;;;30.60;;
5117;SDS011;2578;51.622;7.046;2023-02-26T11:13:16;32.90;;;30.50;;
5117;SDS011;2578;51.622;7.046;2023-02-26T11:15:45;32.90;;;30.50;;
5117;SDS011;2578;51.622;7.046;2023-02-26T11:18:14;33.17;;;30.70;;
5117;SDS011;2578;51.622;7.046;2023-02-26T11:20:44;31.10;;;28.90;;
5117;SDS011;2578;51.622;7.046;2023-02-26T11:23:13;32.10;;;29.83;;
5117;SDS011;2578;51.622;7.046;2023-02-26T11:25:43;32.13;;;29.93;;
5117;SDS011;2578;51.622;7.046;2023-02-26T11:28:23;31.10;;;29.00;;
5117;SDS011;2578;51.622;7.046;2023-02-26T11:30:54;31.33;;;29.13;;
5117;SDS011;2578;51.622;7.046;2023-02-26T11:33:28;29.33;;;27.13;;
5117;SDS011;2578;51.622;7.046;2023-02-26T11:36:00;32.90;;;30.40;;
5117;SDS011;2578;51.622;7.046;2023-02-26T11:38:32;32.07;;;29.57;;
5117;SDS011;2578;51.622;7.046;2023-02-26T11:40:58;32.67;;;30.17;;
5117;SDS011;2578;51.622;7.046;2023-02-26T11:43:26;33.10;;;30.60;;
5117;SDS011;2578;51.622;7.046;2023-02-26T11:46:06;33.80;;;31.30;;
5117;SDS011;2578;51.622;7.046;2023-02-26T11:51:20;35.40;;;32.87;;
5117;SDS011;2578;51.622;7.046;2023-02-26T11:56:23;31.37;;;29.07;;
5117;SDS011;2578;51.622;7.046;2023-02-26T11:58:53;32.47;;;30.07;;
5117;SDS011;2578;51.622;7.046;2023-02-26T12:01:20;30.53;;;28.33;;
5117;SDS011;2578;51.622;7.046;2023-02-26T12:03:52;32.13;;;29.73;;
5117;SDS011;2578;51.622;7.046;2023-02-26T12:06:21;35.07;;;32.60;;
5117;SDS011;2578;51.622;7.046;2023-02-26T12:08:50;35.50;;;33.00;;
5117;SDS011;2578;51.622;7.046;2023-02-26T12:17:52;37.13;;;34.63;;
5117;SDS011;2578;51.622;7.046;2023-02-26T12:28:07;43.03;;;31.90;;
5117;SDS011;2578;51.622;7.046;2023-02-26T12:38:27;32.23;;;29.93;;
5117;SDS011;2578;51.622;7.046;2023-02-26T12:44:47;35.00;;;32.50;;
5117;SDS011;2578;51.622;7.046;2023-02-26T12:53:04;38.80;;;36.20;;
5117;SDS011;2578;51.622;7.046;2023-02-26T13:08:41;39.40;;;36.70;;
5117;SDS011;2578;51.622;7.046;2023-02-26T13:14:34;35.70;;;33.10;;
5117;SDS011;2578;51.622;7.046;2023-02-26T13:17:12;37.33;;;34.63;;
5117;SDS011;2578;51.622;7.046;2023-02-26T13:19:56;37.47;;;34.77;;
5117;SDS011;2578;51.622;7.046;2023-02-26T13:22:30;37.40;;;34.80;;
5117;SDS011;2578;51.622;7.046;2023-02-26T13:25:05;39.13;;;36.53;;
5117;SDS011;2578;51.622;7.046;2023-02-26T13:28:00;37.93;;;35.40;;
5117;SDS011;2578;51.622;7.046;2023-02-26T13:30:31;37.17;;;34.00;;
5117;SDS011;2578;51.622;7.046;2023-02-26T13:33:02;34.53;;;32.03;;
5117;SDS011;2578;51.622;7.046;2023-02-26T13:35:35;34.53;;;32.00;;
5117;SDS011;2578;51.622;7.046;2023-02-26T13:38:12;36.23;;;33.73;;
5117;SDS011;2578;51.622;7.046;2023-02-26T13:41:16;36.60;;;34.00;;
5117;SDS011;2578;51.622;7.046;2023-02-26T13:51:41;35.87;;;32.40;;
5117;SDS011;2578;51.622;7.046;2023-02-26T13:56:42;35.10;;;32.70;;
5117;SDS011;2578;51.622;7.046;2023-02-26T14:01:59;38.27;;;35.67;;
5117;SDS011;2578;51.622;7.046;2023-02-26T14:04:28;37.80;;;35.30;;
5117;SDS011;2578;51.622;7.046;2023-02-26T14:07:03;38.20;;;35.60;;
5117;SDS011;2578;51.622;7.046;2023-02-26T14:12:23;38.50;;;35.90;;
5117;SDS011;2578;51.622;7.046;2023-02-26T14:17:36;39.00;;;36.50;;
5117;SDS011;2578;51.622;7.046;2023-02-26T14:20:14;39.43;;;36.83;;
5117;SDS011;2578;51.622;7.046;2023-02-26T14:22:47;36.30;;;33.90;;
5117;SDS011;2578;51.622;7.046;2023-02-26T14:36:31;34.37;;;31.97;;
5117;SDS011;2578;51.622;7.046;2023-02-26T14:38:58;33.10;;;30.70;;
5117;SDS011;2578;51.622;7.046;2023-02-26T14:41:30;34.43;;;32.03;;
5117;SDS011;2578;51.622;7.046;2023-02-26T14:46:40;33.80;;;31.40;;
5117;SDS011;2578;51.622;7.046;2023-02-26T14:49:21;34.00;;;31.20;;
5117;SDS011;2578;51.622;7.046;2023-02-26T15:09:16;33.50;;;31.10;;
5117;SDS011;2578;51.622;7.046;2023-02-26T15:19:54;34.67;;;32.27;;
5117;SDS011;2578;51.622;7.046;2023-02-26T15:22:32;34.53;;;32.00;;
5117;SDS011;2578;51.622;7.046;2023-02-26T15:25:22;34.00;;;31.50;;
5117;SDS011;2578;51.622;7.046;2023-02-26T15:27:53;33.13;;;30.53;;
5117;SDS011;2578;51.622;7.046;2023-02-26T15:30:19;32.07;;;29.77;;
5117;SDS011;2578;51.622;7.046;2023-02-26T15:32:46;31.43;;;29.13;;
5117;SDS011;2578;51.622;7.046;2023-02-26T15:35:14;31.40;;;29.20;;
5117;SDS011;2578;51.622;7.046;2023-02-26T15:37:47;32.77;;;30.47;;
5117;SDS011;2578;51.622;7.046;2023-02-26T15:40:14;32.70;;;30.40;;
5117;SDS011;2578;51.622;7.046;2023-02-26T15:42:41;32.90;;;30.50;;
5117;SDS011;2578;51.622;7.046;2023-02-26T15:45:13;33.83;;;31.53;;
5117;SDS011;2578;51.622;7.046;2023-02-26T15:47:45;32.93;;;30.63;;
5117;SDS011;2578;51.622;7.046;2023-02-26T15:50:15;33.03;;;30.63;;
5117;SDS011;2578;51.622;7.046;2023-02-26T15:52:41;34.03;;;31.60;;
5117;SDS011;2578;51.622;7.046;2023-02-26T15:55:12;33.70;;;31.30;;
5117;SDS011;2578;51.622;7.046;2023-02-26T15:57:58;34.37;;;31.97;;
5117;SDS011;2578;51.622;7.046;2023-02-26T16:00:25;34.70;;;32.40;;
5117;SDS011;2578;51.622;7.046;2023-02-26T16:02:52;34.80;;;32.40;;
5117;SDS011;2578;51.622;7.046;2023-02-26T16:05:21;33.23;;;30.93;;
5117;SDS011;2578;51.622;7.046;2023-02-26T16:07:47;32.83;;;30.50;;
5117;SDS011;2578;51.622;7.046;2023-02-26T16:10:15;32.67;;;30.37;;
5117;SDS011;2578;51.622;7.046;2023-02-26T16:12:51;31.50;;;29.20;;
5117;SDS011;2578;51.622;7.046;2023-02-26T16:15:21;30.30;;;28.10;;
5117;SDS011;2578;51.622;7.046;2023-02-26T16:17:53;30.27;;;28.07;;
5117;SDS011;2578;51.622;7.046;2023-02-26T16:20:21;30.70;;;28.50;;
5117;SDS011;2578;51.622;7.046;2023-02-26T16:22:50;30.43;;;28.23;;
5117;SDS011;2578;51.622;7.046;2023-02-26T16:25:34;30.27;;;28.17;;
5117;SDS011;2578;51.622;7.046;2023-02-26T16:28:49;31.10;;;28.90;;
5117;SDS011;2578;51.622;7.046;2023-02-26T16:30:55;30.40;;;28.30;;
5117;SDS011;2578;51.622;7.046;2023-02-26T16:33:24;30.50;;;28.30;;
5117;SDS011;2578;51.622;7.046;2023-02-26T16:36:02;31.07;;;28.87;;
5117;SDS011;2578;51.622;7.046;2023-02-26T16:38:31;30.17;;;27.97;;
5117;SDS011;2578;51.622;7.046;2023-02-26T16:41:08;31.20;;;28.90;;
5117;SDS011;2578;51.622;7.046;2023-02-26T16:46:13;29.90;;;27.70;;
5117;SDS011;2578;51.622;7.046;2023-02-26T16:49:02;29.60;;;27.50;;
5117;SDS011;2578;51.622;7.046;2023-02-26T16:51:34;30.00;;;27.80;;
5117;SDS011;2578;51.622;7.046;2023-02-26T16:54:11;28.90;;;26.80;;
5117;SDS011;2578;51.622;7.046;2023-02-26T16:57:03;28.23;;;26.13;;
5117;SDS011;2578;51.622;7.046;2023-02-26T16:59:52;26.60;;;24.60;;
5117;SDS011;2578;51.622;7.046;2023-02-26T17:02:28;25.00;;;23.10;;
5117;SDS011;2578;51.622;7.046;2023-02-26T17:04:59;25.80;;;23.80;;
5117;SDS011;2578;51.622;7.046;2023-02-26T17:07:31;26.90;;;24.80;;
5117;SDS011;2578;51.622;7.046;2023-02-26T17:10:16;27.40;;;25.40;;
5117;SDS011;2578;51.622;7.046;2023-02-26T17:12:53;27.03;;;24.93;;
5117;SDS011;2578;51.622;7.046;2023-02-26T17:15:33;24.90;;;23.00;;
5117;SDS011;2578;51.622;7.046;2023-02-26T17:18:00;25.63;;;23.73;;
5117;SDS011;2578;51.622;7.046;2023-02-26T17:20:27;26.20;;;24.40;;
5117;SDS011;2578;51.622;7.046;2023-02-26T17:22:54;25.80;;;24.00;;
5117;SDS011;2578;51.622;7.046;2023-02-26T17:25:22;25.00;;;23.30;;
5117;SDS011;2578;51.622;7.046;2023-02-26T17:27:50;25.50;;;23.70;;
5117;SDS011;2578;51.622;7.046;2023-02-26T17:30:20;23.80;;;22.20;;
5117;SDS011;2578;51.622;7.046;2023-02-26T17:32:53;24.30;;;22.60;;
5117;SDS011;2578;51.622;7.046;2023-02-26T17:35:19;23.50;;;21.90;;
5117;SDS011;2578;51.622;7.046;2023-02-26T17:37:45;23.10;;;21.40;;
5117;SDS011;2578;51.622;7.046;2023-02-26T17:40:15;24.40;;;22.60;;
5117;SDS011;2578;51.622;7.046;2023-02-26T17:42:41;24.70;;;22.90;;
5117;SDS011;2578;51.622;7.046;2023-02-26T17:45:07;24.50;;;22.70;;
5117;SDS011;2578;51.622;7.046;2023-02-26T17:47:33;24.93;;;23.13;;
5117;SDS011;2578;51.622;7.046;2023-02-26T17:49:59;24.30;;;22.50;;
5117;SDS011;2578;51.622;7.046;2023-02-26T17:52:24;24.53;;;22.73;;
5117;SDS011;2578;51.622;7.046;2023-02-26T17:54:50;24.10;;;22.30;;
5117;SDS011;2578;51.622;7.046;2023-02-26T17:57:17;23.83;;;22.07;;
5117;SDS011;2578;51.622;7.046;2023-02-26T17:59:44;23.10;;;21.40;;
5117;SDS011;2578;51.622;7.046;2023-02-26T18:02:23;23.90;;;22.20;;
5117;SDS011;2578;51.622;7.046;2023-02-26T18:04:51;22.90;;;21.20;;
5117;SDS011;2578;51.622;7.046;2023-02-26T18:07:17;22.50;;;20.90;;
5117;SDS011;2578;51.622;7.046;2023-02-26T18:09:44;22.27;;;20.67;;
5117;SDS011;2578;51.622;7.046;2023-02-26T18:12:15;23.00;;;21.30;;
5117;SDS011;2578;51.622;7.046;2023-02-26T18:14:42;22.30;;;20.70;;
5117;SDS011;2578;51.622;7.046;2023-02-26T18:17:10;23.03;;;21.37;;
5117;SDS011;2578;51.622;7.046;2023-02-26T18:19:57;22.60;;;21.00;;
5117;SDS011;2578;51.622;7.046;2023-02-26T18:22:23;22.70;;;21.10;;